createdAt,value
2016-10-07T00:00:20.843Z,91.40
2016-10-07T00:00:42.555Z,91.34
2016-10-07T00:01:04.269Z,91.42
2016-10-07T00:01:25.977Z,91.66
2016-10-07T00:01:47.689Z,91.53
2016-10-07T00:02:09.398Z,91.44
2016-10-07T00:02:31.105Z,91.28
2016-10-07T00:02:52.825Z,91.18
2016-10-07T00:03:14.538Z,91.32
2016-10-07T00:03:37.257Z,91.53
2016-10-07T00:03:58.972Z,91.52
2016-10-07T00:04:20.686Z,91.58
2016-10-07T00:04:42.409Z,91.50
2016-10-07T00:05:04.121Z,91.56
2016-10-07T00:05:25.855Z,91.57
2016-10-07T00:05:47.580Z,91.54
2016-10-07T00:06:09.282Z,91.80
2016-10-07T00:06:30.988Z,91.92
2016-10-07T00:06:52.706Z,91.79
2016-10-07T00:07:14.431Z,91.77
2016-10-07T00:07:36.143Z,91.80
2016-10-07T00:07:57.850Z,91.76
2016-10-07T00:08:19.570Z,91.59
2016-10-07T00:08:41.285Z,91.41
2016-10-07T00:09:02.999Z,91.33
2016-10-07T00:09:24.704Z,91.44
2016-10-07T00:09:46.414Z,91.37
2016-10-07T00:10:08.125Z,91.12
2016-10-07T00:10:39.382Z,91.12
2016-10-07T00:11:01.091Z,91.10
2016-10-07T00:11:22.800Z,91.17
2016-10-07T00:11:44.513Z,91.03
2016-10-07T00:12:06.227Z,90.89
2016-10-07T00:12:27.941Z,91.00
2016-10-07T00:12:49.651Z,90.92
2016-10-07T00:13:11.366Z,90.77
2016-10-07T00:13:33.081Z,90.80
2016-10-07T00:13:54.793Z,90.60
2016-10-07T00:14:16.500Z,90.53
2016-10-07T00:14:38.213Z,90.64
2016-10-07T00:14:59.927Z,90.95
2016-10-07T00:15:21.639Z,91.15
2016-10-07T00:15:43.369Z,91.22
2016-10-07T00:16:05.087Z,91.33
2016-10-07T00:16:26.812Z,91.18
2016-10-07T00:16:48.529Z,91.11
2016-10-07T00:17:10.244Z,91.19
2016-10-07T00:17:31.961Z,91.38
2016-10-07T00:17:53.675Z,91.37
2016-10-07T00:18:15.391Z,91.54
2016-10-07T00:18:37.102Z,91.48
2016-10-07T00:18:58.814Z,91.42
2016-10-07T00:19:20.518Z,91.39
2016-10-07T00:19:42.236Z,91.23
2016-10-07T00:20:03.944Z,91.41
2016-10-07T00:20:25.654Z,91.52
2016-10-07T00:20:47.366Z,91.50
2016-10-07T00:21:09.074Z,91.57
2016-10-07T00:21:30.786Z,91.49
2016-10-07T00:21:52.495Z,91.46
2016-10-07T00:22:14.208Z,91.44
2016-10-07T00:22:35.919Z,91.45
2016-10-07T00:22:57.631Z,91.33
2016-10-07T00:23:19.346Z,91.28
2016-10-07T00:23:41.071Z,91.32
2016-10-07T00:24:02.788Z,91.40
2016-10-07T00:24:24.507Z,91.55
2016-10-07T00:24:46.227Z,91.67
2016-10-07T00:25:07.941Z,91.80
2016-10-07T00:25:29.674Z,91.80
2016-10-07T00:25:53.943Z,91.94
2016-10-07T00:26:15.648Z,91.77
2016-10-07T00:26:37.361Z,91.79
2016-10-07T00:26:59.082Z,91.71
2016-10-07T00:27:20.797Z,91.70
2016-10-07T00:27:42.504Z,91.71
2016-10-07T00:28:04.225Z,91.56
2016-10-07T00:28:25.949Z,91.42
2016-10-07T00:28:47.663Z,91.41
2016-10-07T00:29:09.378Z,91.45
2016-10-07T00:29:31.087Z,91.69
2016-10-07T00:29:52.808Z,91.48
2016-10-07T00:30:14.525Z,91.44
2016-10-07T00:30:36.250Z,91.51
2016-10-07T00:30:57.971Z,91.45
2016-10-07T00:31:19.690Z,91.64
2016-10-07T00:31:41.402Z,91.79
2016-10-07T00:32:03.119Z,91.87
2016-10-07T00:32:24.835Z,91.80
2016-10-07T00:32:46.544Z,91.76
2016-10-07T00:33:08.261Z,91.62
2016-10-07T00:33:29.978Z,91.52
2016-10-07T00:33:51.696Z,91.53
2016-10-07T00:34:13.426Z,91.44
2016-10-07T00:34:35.140Z,91.46
2016-10-07T00:34:56.855Z,91.40
2016-10-07T00:35:18.571Z,91.42
2016-10-07T00:35:40.286Z,91.38
2016-10-07T00:36:02.008Z,91.35
2016-10-07T00:36:23.717Z,91.28
2016-10-07T00:36:45.447Z,91.40
2016-10-07T00:37:07.159Z,91.36
2016-10-07T00:37:28.871Z,91.15
2016-10-07T00:37:50.583Z,91.05
2016-10-07T00:38:12.319Z,91.01
2016-10-07T00:38:34.028Z,91.47
2016-10-07T00:38:55.751Z,91.66
2016-10-07T00:39:17.463Z,91.75
2016-10-07T00:39:39.175Z,91.91
2016-10-07T00:40:00.882Z,91.70
2016-10-07T00:40:22.592Z,91.58
2016-10-07T00:40:44.321Z,91.54
2016-10-07T00:41:06.042Z,91.60
2016-10-07T00:41:27.756Z,91.69
2016-10-07T00:41:49.476Z,91.44
2016-10-07T00:42:11.201Z,91.52
2016-10-07T00:42:32.912Z,91.56
2016-10-07T00:42:54.626Z,91.60
2016-10-07T00:43:16.346Z,91.70
2016-10-07T00:43:38.058Z,91.73
2016-10-07T00:43:59.772Z,91.77
2016-10-07T00:44:21.490Z,91.93
2016-10-07T00:44:43.204Z,91.86
2016-10-07T00:45:04.923Z,91.77
2016-10-07T00:45:26.644Z,91.81
2016-10-07T00:45:48.362Z,91.79
2016-10-07T00:46:10.077Z,91.62
2016-10-07T00:46:31.794Z,91.75
2016-10-07T00:46:53.506Z,91.85
2016-10-07T00:47:15.218Z,91.64
2016-10-07T00:47:36.946Z,91.73
2016-10-07T00:47:58.662Z,91.74
2016-10-07T00:48:20.367Z,91.85
2016-10-07T00:48:42.076Z,91.58
2016-10-07T00:49:03.798Z,91.59
2016-10-07T00:49:25.503Z,91.66
2016-10-07T00:49:47.214Z,91.83
2016-10-07T00:50:08.925Z,91.85
2016-10-07T00:50:30.642Z,91.72
2016-10-07T00:50:52.356Z,91.86
2016-10-07T00:51:14.065Z,91.86
2016-10-07T00:51:35.774Z,91.68
2016-10-07T00:51:57.495Z,91.52
2016-10-07T00:52:19.212Z,91.55
2016-10-07T00:52:40.934Z,91.57
2016-10-07T00:53:02.649Z,91.48
2016-10-07T00:53:24.356Z,91.64
2016-10-07T00:53:46.068Z,91.40
2016-10-07T00:54:07.789Z,91.41
2016-10-07T00:54:29.497Z,91.32
2016-10-07T00:54:51.215Z,91.33
2016-10-07T00:55:12.930Z,91.29
2016-10-07T00:55:34.646Z,91.32
2016-10-07T00:55:56.359Z,91.31
2016-10-07T00:56:18.071Z,91.40
2016-10-07T00:56:39.790Z,91.49
2016-10-07T00:57:01.510Z,91.43
2016-10-07T00:57:23.217Z,91.61
2016-10-07T00:57:44.937Z,91.47
2016-10-07T00:58:06.658Z,91.52
2016-10-07T00:58:28.368Z,91.59
2016-10-07T00:58:54.855Z,91.53
2016-10-07T00:59:16.566Z,91.57
2016-10-07T00:59:38.277Z,91.53
2016-10-07T01:00:00.007Z,91.73
2016-10-07T01:00:21.721Z,91.57
2016-10-07T01:00:43.431Z,91.71
2016-10-07T01:01:05.155Z,91.73
2016-10-07T01:01:26.873Z,91.75
2016-10-07T01:01:48.579Z,91.63
2016-10-07T01:02:10.287Z,91.69
2016-10-07T01:02:32.003Z,91.52
2016-10-07T01:02:53.723Z,91.52
2016-10-07T01:03:15.435Z,91.57
2016-10-07T01:03:37.150Z,91.65
2016-10-07T01:03:58.873Z,91.79
2016-10-07T01:04:20.598Z,91.79
2016-10-07T01:04:42.313Z,91.85
2016-10-07T01:05:04.039Z,91.80
2016-10-07T01:05:25.747Z,91.58
2016-10-07T01:05:47.461Z,91.47
2016-10-07T01:06:09.174Z,91.50
2016-10-07T01:06:30.883Z,91.47
2016-10-07T01:06:52.592Z,91.70
2016-10-07T01:07:14.305Z,91.76
2016-10-07T01:07:36.017Z,92.00
2016-10-07T01:07:57.728Z,92.10
2016-10-07T01:08:19.446Z,91.79
2016-10-07T01:08:41.160Z,91.72
2016-10-07T01:09:02.880Z,91.82
2016-10-07T01:09:24.590Z,91.54
2016-10-07T01:09:46.310Z,91.52
2016-10-07T01:10:08.014Z,91.43
2016-10-07T01:10:29.728Z,91.40
2016-10-07T01:11:17.926Z,91.46
2016-10-07T01:11:39.646Z,91.46
2016-10-07T01:12:01.355Z,91.27
2016-10-07T01:12:23.086Z,91.43
2016-10-07T01:12:44.795Z,91.47
2016-10-07T01:13:06.507Z,91.49
2016-10-07T01:13:28.219Z,91.71
2016-10-07T01:13:49.947Z,91.63
2016-10-07T01:14:11.667Z,91.88
2016-10-07T01:14:33.373Z,91.86
2016-10-07T01:14:55.114Z,91.86
2016-10-07T01:15:16.830Z,91.91
2016-10-07T01:15:38.538Z,92.02
2016-10-07T01:16:01.256Z,92.09
2016-10-07T01:16:22.973Z,92.03
2016-10-07T01:16:44.682Z,92.21
2016-10-07T01:17:06.403Z,92.33
2016-10-07T01:17:28.099Z,92.26
2016-10-07T01:17:49.808Z,92.22
2016-10-07T01:18:11.530Z,92.20
2016-10-07T01:18:59.723Z,92.27
2016-10-07T01:19:21.442Z,92.15
2016-10-07T01:19:43.160Z,91.85
2016-10-07T01:20:04.870Z,91.94
2016-10-07T01:20:26.591Z,92.00
2016-10-07T01:20:48.323Z,91.96
2016-10-07T01:21:10.031Z,91.93
2016-10-07T01:21:31.758Z,91.91
2016-10-07T01:21:53.467Z,91.90
2016-10-07T01:22:15.181Z,91.81
2016-10-07T01:22:36.896Z,91.59
2016-10-07T01:22:58.605Z,91.53
2016-10-07T01:23:20.307Z,91.67
2016-10-07T01:23:42.026Z,91.61
2016-10-07T01:24:03.731Z,91.63
2016-10-07T01:24:25.439Z,91.61
2016-10-07T01:24:47.151Z,91.73
2016-10-07T01:25:08.871Z,91.47
2016-10-07T01:25:35.356Z,91.46
2016-10-07T01:25:57.065Z,91.41
2016-10-07T01:26:18.780Z,91.30
2016-10-07T01:26:40.490Z,91.33
2016-10-07T01:27:02.202Z,91.32
2016-10-07T01:27:23.919Z,91.21
2016-10-07T01:27:45.644Z,91.10
2016-10-07T01:28:07.352Z,91.20
2016-10-07T01:28:29.063Z,91.23
2016-10-07T01:28:50.773Z,91.68
2016-10-07T01:29:12.479Z,91.81
2016-10-07T01:29:34.191Z,91.96
2016-10-07T01:29:55.897Z,91.97
2016-10-07T01:30:17.610Z,91.98
2016-10-07T01:30:39.330Z,92.00
2016-10-07T01:31:01.054Z,91.75
2016-10-07T01:31:22.769Z,91.71
2016-10-07T01:31:44.475Z,91.58
2016-10-07T01:32:06.185Z,91.44
2016-10-07T01:32:27.902Z,91.53
2016-10-07T01:32:49.612Z,91.65
2016-10-07T01:33:11.329Z,91.66
2016-10-07T01:33:33.046Z,91.92
2016-10-07T01:33:54.747Z,92.04
2016-10-07T01:34:16.454Z,92.14
2016-10-07T01:34:38.166Z,92.17
2016-10-07T01:35:26.356Z,91.89
2016-10-07T01:35:48.075Z,91.80
2016-10-07T01:36:09.787Z,91.69
2016-10-07T01:36:31.496Z,91.73
2016-10-07T01:36:53.214Z,91.78
2016-10-07T01:37:14.918Z,91.69
2016-10-07T01:37:36.628Z,91.55
2016-10-07T01:37:58.345Z,91.57
2016-10-07T01:38:20.059Z,91.70
2016-10-07T01:38:41.777Z,91.74
2016-10-07T01:39:03.481Z,91.74
2016-10-07T01:39:25.192Z,91.85
2016-10-07T01:39:46.904Z,91.95
2016-10-07T01:40:08.624Z,91.80
2016-10-07T01:40:30.331Z,91.56
2016-10-07T01:40:52.045Z,91.50
2016-10-07T01:41:13.755Z,91.63
2016-10-07T01:41:35.469Z,91.76
2016-10-07T01:41:57.179Z,91.78
2016-10-07T01:42:18.905Z,91.79
2016-10-07T01:42:40.599Z,91.71
2016-10-07T01:43:02.320Z,91.57
2016-10-07T01:43:24.037Z,91.45
2016-10-07T01:43:45.760Z,91.50
2016-10-07T01:44:07.472Z,91.45
2016-10-07T01:44:29.181Z,91.60
2016-10-07T01:44:50.890Z,91.45
2016-10-07T01:45:12.600Z,91.47
2016-10-07T01:45:34.309Z,91.30
2016-10-07T01:45:56.026Z,91.29
2016-10-07T01:46:17.735Z,91.39
2016-10-07T01:46:39.455Z,91.50
2016-10-07T01:47:01.163Z,91.59
2016-10-07T01:47:22.882Z,91.68
2016-10-07T01:47:44.594Z,91.52
2016-10-07T01:48:06.310Z,91.38
2016-10-07T01:48:28.028Z,91.48
2016-10-07T01:48:49.738Z,91.34
2016-10-07T01:49:11.447Z,91.42
2016-10-07T01:49:33.159Z,91.36
2016-10-07T01:49:54.872Z,91.36
2016-10-07T01:50:16.583Z,91.34
2016-10-07T01:50:38.291Z,91.38
2016-10-07T01:51:00.010Z,91.47
2016-10-07T01:51:21.724Z,91.64
2016-10-07T01:51:43.434Z,91.72
2016-10-07T01:52:05.159Z,91.68
2016-10-07T01:52:26.873Z,91.68
2016-10-07T01:52:48.587Z,91.82
2016-10-07T01:53:10.309Z,91.72
2016-10-07T01:53:32.018Z,91.87
2016-10-07T01:53:53.730Z,91.82
2016-10-07T01:54:15.444Z,91.84
2016-10-07T01:54:37.167Z,91.84
2016-10-07T01:54:58.874Z,91.96
2016-10-07T01:55:20.585Z,92.13
2016-10-07T01:55:42.300Z,92.11
2016-10-07T01:56:04.024Z,92.09
2016-10-07T01:56:30.618Z,92.05
2016-10-07T01:56:52.337Z,92.01
2016-10-07T01:57:14.049Z,92.11
2016-10-07T01:57:35.759Z,92.09
2016-10-07T01:57:57.472Z,92.01
2016-10-07T01:58:19.185Z,91.94
2016-10-07T01:58:40.895Z,91.92
2016-10-07T01:59:02.604Z,91.87
2016-10-07T01:59:24.321Z,91.78
2016-10-07T01:59:46.026Z,91.71
2016-10-07T02:00:07.745Z,91.62
2016-10-07T02:00:29.449Z,91.58
2016-10-07T02:00:51.172Z,91.43
2016-10-07T02:01:12.896Z,91.56
2016-10-07T02:01:34.606Z,91.63
2016-10-07T02:01:56.321Z,91.56
2016-10-07T02:02:18.038Z,91.60
2016-10-07T02:02:39.758Z,91.47
2016-10-07T02:03:01.468Z,91.64
2016-10-07T02:03:23.177Z,91.63
2016-10-07T02:03:44.889Z,91.53
2016-10-07T02:04:06.598Z,91.46
2016-10-07T02:04:28.306Z,91.42
2016-10-07T02:04:50.023Z,91.49
2016-10-07T02:05:11.739Z,91.44
2016-10-07T02:05:33.460Z,91.42
2016-10-07T02:05:55.188Z,91.46
2016-10-07T02:06:16.902Z,91.67
2016-10-07T02:06:38.609Z,91.71
2016-10-07T02:07:00.326Z,91.64
2016-10-07T02:07:22.051Z,91.59
2016-10-07T02:07:43.763Z,91.57
2016-10-07T02:08:05.487Z,91.72
2016-10-07T02:08:27.203Z,91.44
2016-10-07T02:08:48.913Z,91.42
2016-10-07T02:09:20.173Z,91.18
2016-10-07T02:09:41.884Z,91.29
2016-10-07T02:10:03.607Z,91.48
2016-10-07T02:10:25.318Z,91.42
2016-10-07T02:10:47.030Z,91.40
2016-10-07T02:11:08.737Z,91.33
2016-10-07T02:11:30.475Z,91.28
2016-10-07T02:11:52.186Z,91.48
2016-10-07T02:12:13.897Z,91.61
2016-10-07T02:12:40.378Z,91.64
2016-10-07T02:13:02.089Z,91.60
2016-10-07T02:13:23.802Z,91.64
2016-10-07T02:13:45.512Z,91.48
2016-10-07T02:14:07.219Z,91.48
2016-10-07T02:14:28.923Z,91.60
2016-10-07T02:14:50.633Z,91.60
2016-10-07T02:15:12.347Z,91.38
2016-10-07T02:15:34.067Z,91.40
2016-10-07T02:15:55.795Z,91.34
2016-10-07T02:16:17.517Z,91.34
2016-10-07T02:16:39.229Z,91.42
2016-10-07T02:17:00.939Z,91.38
2016-10-07T02:17:22.649Z,91.40
2016-10-07T02:17:44.365Z,91.50
2016-10-07T02:18:06.080Z,91.36
2016-10-07T02:18:27.785Z,91.42
2016-10-07T02:18:49.496Z,91.52
2016-10-07T02:19:11.203Z,91.66
2016-10-07T02:19:32.920Z,91.63
2016-10-07T02:19:54.631Z,91.54
2016-10-07T02:20:16.355Z,91.59
2016-10-07T02:20:38.062Z,91.72
2016-10-07T02:20:59.778Z,91.62
2016-10-07T02:21:24.386Z,91.69
2016-10-07T02:21:46.104Z,91.88
2016-10-07T02:22:07.821Z,91.69
2016-10-07T02:22:29.523Z,91.63
2016-10-07T02:22:51.244Z,91.46
2016-10-07T02:23:12.957Z,91.44
2016-10-07T02:23:34.664Z,91.57
2016-10-07T02:23:56.381Z,91.71
2016-10-07T02:24:18.096Z,91.61
2016-10-07T02:24:39.811Z,91.46
2016-10-07T02:25:01.523Z,91.46
2016-10-07T02:25:23.240Z,91.56
2016-10-07T02:25:44.954Z,91.72
2016-10-07T02:26:06.667Z,91.58
2016-10-07T02:26:28.379Z,91.65
2016-10-07T02:26:50.098Z,91.61
2016-10-07T02:27:11.810Z,91.58
2016-10-07T02:27:33.519Z,91.57
2016-10-07T02:27:55.223Z,91.51
2016-10-07T02:28:16.934Z,91.52
2016-10-07T02:28:38.647Z,91.71
2016-10-07T02:29:00.367Z,91.83
2016-10-07T02:29:22.087Z,91.97
2016-10-07T02:29:43.797Z,91.96
2016-10-07T02:30:05.511Z,91.78
2016-10-07T02:30:27.223Z,91.86
2016-10-07T02:30:48.928Z,91.84
2016-10-07T02:31:10.640Z,91.73
2016-10-07T02:31:32.353Z,91.49
2016-10-07T02:31:54.069Z,91.54
2016-10-07T02:32:15.788Z,91.52
2016-10-07T02:32:37.508Z,91.59
2016-10-07T02:32:59.228Z,91.47
2016-10-07T02:33:20.943Z,91.55
2016-10-07T02:33:42.655Z,91.71
2016-10-07T02:34:04.362Z,91.57
2016-10-07T02:34:26.084Z,91.39
2016-10-07T02:34:47.796Z,91.49
2016-10-07T02:35:09.503Z,91.62
2016-10-07T02:35:31.228Z,91.64
2016-10-07T02:35:52.948Z,91.36
2016-10-07T02:36:14.656Z,91.51
2016-10-07T02:36:36.378Z,91.57
2016-10-07T02:36:58.085Z,91.44
2016-10-07T02:37:19.808Z,91.43
2016-10-07T02:37:41.523Z,91.58
2016-10-07T02:38:03.236Z,91.58
2016-10-07T02:38:24.947Z,91.49
2016-10-07T02:38:46.660Z,91.57
2016-10-07T02:39:08.371Z,91.52
2016-10-07T02:39:30.096Z,91.37
2016-10-07T02:39:51.815Z,91.27
2016-10-07T02:40:13.532Z,91.31
2016-10-07T02:40:35.252Z,91.27
2016-10-07T02:40:56.961Z,91.27
2016-10-07T02:41:18.668Z,91.46
2016-10-07T02:41:40.380Z,91.46
2016-10-07T02:42:02.096Z,91.43
2016-10-07T02:42:23.809Z,91.49
2016-10-07T02:42:45.524Z,91.45
2016-10-07T02:43:07.248Z,91.33
2016-10-07T02:43:28.964Z,91.52
2016-10-07T02:43:50.680Z,91.57
2016-10-07T02:44:12.397Z,91.61
2016-10-07T02:44:34.112Z,91.48
2016-10-07T02:44:55.822Z,91.55
2016-10-07T02:45:17.534Z,91.33
2016-10-07T02:45:39.245Z,91.54
2016-10-07T02:46:00.953Z,91.61
2016-10-07T02:46:22.662Z,91.78
2016-10-07T02:46:44.373Z,91.82
2016-10-07T02:47:06.102Z,91.84
2016-10-07T02:47:27.817Z,91.78
2016-10-07T02:47:49.531Z,91.85
2016-10-07T02:48:11.253Z,91.72
2016-10-07T02:48:32.971Z,91.71
2016-10-07T02:48:54.689Z,91.81
2016-10-07T02:49:16.398Z,91.89
2016-10-07T02:49:38.104Z,91.86
2016-10-07T02:49:59.813Z,91.68
2016-10-07T02:50:21.523Z,91.55
2016-10-07T02:50:43.254Z,91.46
2016-10-07T02:51:04.966Z,91.34
2016-10-07T02:51:26.678Z,91.44
2016-10-07T02:51:48.389Z,91.48
2016-10-07T02:52:10.114Z,91.40
2016-10-07T02:52:31.832Z,91.47
2016-10-07T02:52:53.543Z,91.50
2016-10-07T02:53:15.260Z,91.52
2016-10-07T02:53:36.976Z,91.43
2016-10-07T02:53:58.685Z,91.38
2016-10-07T02:54:20.413Z,91.71
2016-10-07T02:54:42.130Z,91.71
2016-10-07T02:55:03.839Z,91.56
2016-10-07T02:55:25.549Z,91.47
2016-10-07T02:55:47.269Z,91.43
2016-10-07T02:56:08.981Z,91.29
2016-10-07T02:56:31.700Z,91.22
2016-10-07T02:56:53.415Z,91.19
2016-10-07T02:57:15.130Z,91.26
2016-10-07T02:57:36.841Z,91.32
2016-10-07T02:57:58.558Z,91.29
2016-10-07T02:58:23.212Z,91.47
2016-10-07T02:58:44.930Z,91.53
2016-10-07T02:59:06.655Z,91.49
2016-10-07T02:59:28.367Z,91.42
2016-10-07T02:59:50.087Z,91.26
2016-10-07T03:00:11.788Z,91.23
2016-10-07T03:00:33.505Z,91.19
2016-10-07T03:00:55.214Z,91.21
2016-10-07T03:01:16.924Z,91.13
2016-10-07T03:01:38.633Z,91.28
2016-10-07T03:02:00.343Z,91.34
2016-10-07T03:02:22.054Z,91.18
2016-10-07T03:02:43.763Z,91.29
2016-10-07T03:03:05.471Z,91.29
2016-10-07T03:03:27.188Z,91.31
2016-10-07T03:03:48.902Z,91.27
2016-10-07T03:04:10.619Z,91.22
2016-10-07T03:04:32.336Z,91.21
2016-10-07T03:04:54.044Z,91.16
2016-10-07T03:05:15.765Z,91.22
2016-10-07T03:05:37.481Z,91.23
2016-10-07T03:05:59.193Z,91.21
2016-10-07T03:06:20.905Z,91.32
2016-10-07T03:06:42.625Z,91.17
2016-10-07T03:07:04.333Z,91.16
2016-10-07T03:07:26.046Z,91.07
2016-10-07T03:07:47.755Z,91.09
2016-10-07T03:08:09.459Z,91.13
2016-10-07T03:08:31.185Z,91.05
2016-10-07T03:08:52.889Z,91.10
2016-10-07T03:09:14.603Z,91.01
2016-10-07T03:09:36.320Z,90.95
2016-10-07T03:09:58.032Z,91.03
2016-10-07T03:10:19.749Z,91.11
2016-10-07T03:10:41.459Z,91.05
2016-10-07T03:11:03.170Z,91.13
2016-10-07T03:11:24.877Z,91.17
2016-10-07T03:11:46.587Z,91.10
2016-10-07T03:12:08.296Z,91.15
2016-10-07T03:12:30.005Z,91.25
2016-10-07T03:12:51.722Z,91.41
2016-10-07T03:13:13.431Z,91.41
2016-10-07T03:13:35.141Z,91.42
2016-10-07T03:13:56.851Z,91.25
2016-10-07T03:14:18.573Z,91.19
2016-10-07T03:14:40.285Z,91.17
2016-10-07T03:15:02.000Z,91.10
2016-10-07T03:15:23.727Z,91.08
2016-10-07T03:15:45.429Z,91.30
2016-10-07T03:16:07.138Z,91.36
2016-10-07T03:16:28.845Z,91.05
2016-10-07T03:16:50.576Z,91.01
2016-10-07T03:17:12.287Z,90.91
2016-10-07T03:17:33.999Z,90.90
2016-10-07T03:17:55.727Z,91.02
2016-10-07T03:18:17.437Z,90.99
2016-10-07T03:18:39.145Z,91.20
2016-10-07T03:19:00.863Z,91.29
2016-10-07T03:19:22.588Z,91.18
2016-10-07T03:19:47.052Z,91.18
2016-10-07T03:20:08.764Z,91.31
2016-10-07T03:20:30.484Z,91.30
2016-10-07T03:20:52.202Z,91.16
2016-10-07T03:21:13.913Z,91.20
2016-10-07T03:21:35.626Z,91.17
2016-10-07T03:21:57.335Z,91.11
2016-10-07T03:22:19.047Z,91.13
2016-10-07T03:22:40.757Z,91.38
2016-10-07T03:23:02.472Z,91.08
2016-10-07T03:23:24.191Z,91.06
2016-10-07T03:23:45.899Z,91.18
2016-10-07T03:24:07.604Z,91.24
2016-10-07T03:24:33.318Z,91.25
2016-10-07T03:24:55.030Z,91.14
2016-10-07T03:25:16.740Z,90.92
2016-10-07T03:25:38.455Z,91.02
2016-10-07T03:26:00.175Z,90.96
2016-10-07T03:26:21.884Z,91.17
2016-10-07T03:26:43.596Z,91.16
2016-10-07T03:27:05.306Z,91.19
2016-10-07T03:27:27.015Z,91.14
2016-10-07T03:27:48.743Z,91.12
2016-10-07T03:28:10.455Z,91.11
2016-10-07T03:28:32.185Z,91.21
2016-10-07T03:28:53.907Z,91.11
2016-10-07T03:29:15.627Z,91.18
2016-10-07T03:29:37.340Z,91.16
2016-10-07T03:29:59.062Z,91.09
2016-10-07T03:30:20.775Z,91.12
2016-10-07T03:30:42.486Z,91.04
2016-10-07T03:31:04.223Z,91.22
2016-10-07T03:31:25.939Z,91.18
2016-10-07T03:31:47.657Z,91.33
2016-10-07T03:32:09.369Z,91.51
2016-10-07T03:32:31.088Z,91.67
2016-10-07T03:32:52.801Z,91.81
2016-10-07T03:33:14.518Z,91.80
2016-10-07T03:33:36.227Z,91.67
2016-10-07T03:33:57.950Z,91.57
2016-10-07T03:34:19.669Z,91.37
2016-10-07T03:34:41.394Z,91.45
2016-10-07T03:35:03.115Z,91.51
2016-10-07T03:35:24.822Z,91.52
2016-10-07T03:35:46.546Z,91.44
2016-10-07T03:36:08.251Z,91.37
2016-10-07T03:36:29.971Z,91.37
2016-10-07T03:36:51.682Z,91.35
2016-10-07T03:37:13.401Z,91.37
2016-10-07T03:37:35.126Z,91.18
2016-10-07T03:37:56.842Z,91.16
2016-10-07T03:38:18.549Z,91.17
2016-10-07T03:38:40.262Z,91.18
2016-10-07T03:39:01.989Z,91.30
2016-10-07T03:39:23.707Z,91.25
2016-10-07T03:39:45.418Z,91.28
2016-10-07T03:40:07.141Z,91.38
2016-10-07T03:40:28.850Z,91.43
2016-10-07T03:40:50.582Z,91.43
2016-10-07T03:41:12.312Z,91.56
2016-10-07T03:41:38.803Z,91.61
2016-10-07T03:42:00.527Z,91.62
2016-10-07T03:42:22.235Z,91.63
2016-10-07T03:42:43.954Z,91.62
2016-10-07T03:43:05.664Z,91.54
2016-10-07T03:43:27.376Z,91.53
2016-10-07T03:43:49.084Z,91.35
2016-10-07T03:44:10.795Z,91.29
2016-10-07T03:44:32.498Z,91.25
2016-10-07T03:44:54.215Z,91.20
2016-10-07T03:45:15.932Z,91.08
2016-10-07T03:45:37.645Z,91.30
2016-10-07T03:45:59.357Z,91.43
2016-10-07T03:46:21.066Z,91.52
2016-10-07T03:46:42.780Z,91.45
2016-10-07T03:47:04.500Z,91.50
2016-10-07T03:47:26.216Z,91.33
2016-10-07T03:47:47.922Z,91.29
2016-10-07T03:48:09.633Z,91.24
2016-10-07T03:48:31.355Z,91.15
2016-10-07T03:48:53.073Z,91.01
2016-10-07T03:49:14.783Z,91.01
2016-10-07T03:49:36.500Z,91.06
2016-10-07T03:49:58.219Z,90.99
2016-10-07T03:50:19.930Z,91.12
2016-10-07T03:50:41.647Z,91.00
2016-10-07T03:51:03.364Z,91.13
2016-10-07T03:51:25.065Z,91.40
2016-10-07T03:51:46.782Z,91.50
2016-10-07T03:52:08.502Z,91.34
2016-10-07T03:52:30.229Z,91.31
2016-10-07T03:52:56.719Z,91.21
2016-10-07T03:53:44.923Z,90.93
2016-10-07T03:54:06.650Z,90.91
2016-10-07T03:54:28.370Z,90.81
2016-10-07T03:54:50.086Z,90.89
2016-10-07T03:55:11.787Z,90.82
2016-10-07T03:55:33.495Z,90.84
2016-10-07T03:55:55.209Z,90.83
2016-10-07T03:56:16.939Z,90.78
2016-10-07T03:56:38.647Z,90.85
2016-10-07T03:57:00.359Z,90.90
2016-10-07T03:57:22.067Z,91.02
2016-10-07T03:57:43.796Z,91.15
2016-10-07T03:58:05.515Z,91.11
2016-10-07T03:58:27.227Z,91.10
2016-10-07T03:58:53.710Z,90.90
2016-10-07T03:59:15.425Z,90.79
2016-10-07T03:59:37.140Z,90.78
2016-10-07T03:59:58.873Z,90.64
2016-10-07T04:00:20.593Z,90.67
2016-10-07T04:00:42.294Z,90.69
2016-10-07T04:01:04.011Z,90.58
2016-10-07T04:01:25.724Z,90.68
2016-10-07T04:01:47.441Z,90.70
2016-10-07T04:02:09.163Z,90.46
2016-10-07T04:02:30.876Z,90.45
2016-10-07T04:02:52.595Z,90.39
2016-10-07T04:03:14.325Z,90.46
2016-10-07T04:03:36.037Z,90.43
2016-10-07T04:03:57.749Z,90.46
2016-10-07T04:04:19.463Z,90.54
2016-10-07T04:04:41.171Z,90.59
2016-10-07T04:05:02.880Z,90.52
2016-10-07T04:05:24.591Z,90.55
2016-10-07T04:05:46.306Z,90.45
2016-10-07T04:06:08.016Z,90.43
2016-10-07T04:06:29.736Z,90.47
2016-10-07T04:06:51.455Z,90.56
2016-10-07T04:07:13.187Z,90.56
2016-10-07T04:07:34.911Z,90.55
2016-10-07T04:07:56.624Z,90.67
2016-10-07T04:08:18.340Z,90.69
2016-10-07T04:08:40.055Z,90.58
2016-10-07T04:09:01.781Z,90.67
2016-10-07T04:09:23.490Z,90.69
2016-10-07T04:09:45.209Z,90.61
2016-10-07T04:10:06.920Z,90.62
2016-10-07T04:10:28.644Z,90.63
2016-10-07T04:10:50.353Z,90.59
2016-10-07T04:11:12.073Z,90.50
2016-10-07T04:11:33.799Z,90.51
2016-10-07T04:11:55.510Z,90.52
2016-10-07T04:12:17.230Z,90.46
2016-10-07T04:12:38.938Z,90.45
2016-10-07T04:13:00.666Z,90.48
2016-10-07T04:13:22.390Z,90.46
2016-10-07T04:13:44.104Z,90.41
2016-10-07T04:14:05.815Z,90.46
2016-10-07T04:14:27.527Z,90.49
2016-10-07T04:14:54.007Z,90.46
2016-10-07T04:15:15.719Z,90.53
2016-10-07T04:15:37.443Z,90.44
2016-10-07T04:15:59.169Z,90.51
2016-10-07T04:16:20.881Z,90.41
2016-10-07T04:16:42.593Z,90.40
2016-10-07T04:17:04.314Z,90.45
2016-10-07T04:17:26.033Z,90.54
2016-10-07T04:17:47.750Z,90.63
2016-10-07T04:18:09.480Z,90.58
2016-10-07T04:18:32.195Z,90.56
2016-10-07T04:18:53.910Z,90.55
2016-10-07T04:19:15.629Z,90.39
2016-10-07T04:19:37.345Z,90.55
2016-10-07T04:19:59.054Z,90.58
2016-10-07T04:20:20.765Z,90.64
2016-10-07T04:20:42.493Z,90.54
2016-10-07T04:21:04.201Z,90.54
2016-10-07T04:21:25.912Z,90.52
2016-10-07T04:21:47.624Z,90.53
2016-10-07T04:22:09.341Z,90.56
2016-10-07T04:22:31.050Z,90.57
2016-10-07T04:22:52.757Z,90.56
2016-10-07T04:23:14.466Z,90.65
2016-10-07T04:23:36.184Z,90.65
2016-10-07T04:23:57.895Z,90.66
2016-10-07T04:24:19.608Z,90.62
2016-10-07T04:24:41.327Z,90.62
2016-10-07T04:25:03.036Z,90.63
2016-10-07T04:25:24.754Z,90.71
2016-10-07T04:25:46.473Z,90.79
2016-10-07T04:26:08.197Z,90.78
2016-10-07T04:26:29.902Z,90.71
2016-10-07T04:26:51.621Z,90.65
2016-10-07T04:27:13.335Z,90.75
2016-10-07T04:27:35.054Z,90.74
2016-10-07T04:27:56.770Z,90.88
2016-10-07T04:28:18.486Z,90.71
2016-10-07T04:28:40.207Z,90.69
2016-10-07T04:29:01.927Z,90.66
2016-10-07T04:29:23.633Z,90.57
2016-10-07T04:29:45.345Z,90.58
2016-10-07T04:30:07.065Z,90.63
2016-10-07T04:30:28.786Z,90.61
2016-10-07T04:30:50.505Z,90.50
2016-10-07T04:31:12.225Z,90.45
2016-10-07T04:31:33.944Z,90.53
2016-10-07T04:31:55.654Z,90.48
2016-10-07T04:32:17.377Z,90.54
2016-10-07T04:32:39.087Z,90.68
2016-10-07T04:33:00.798Z,90.74
2016-10-07T04:33:22.517Z,90.62
2016-10-07T04:33:44.229Z,90.58
2016-10-07T04:34:05.947Z,90.78
2016-10-07T04:34:27.657Z,90.83
2016-10-07T04:34:49.374Z,90.79
2016-10-07T04:35:11.096Z,90.74
2016-10-07T04:35:32.798Z,90.60
2016-10-07T04:35:54.514Z,90.61
2016-10-07T04:36:16.229Z,90.65
2016-10-07T04:36:37.947Z,90.64
2016-10-07T04:36:59.670Z,90.59
2016-10-07T04:37:21.407Z,90.57
2016-10-07T04:37:45.751Z,90.79
2016-10-07T04:38:07.474Z,90.67
2016-10-07T04:38:29.184Z,90.57
2016-10-07T04:38:50.899Z,90.51
2016-10-07T04:39:12.623Z,90.47
2016-10-07T04:39:34.344Z,90.51
2016-10-07T04:39:58.744Z,90.63
2016-10-07T04:40:20.451Z,90.68
2016-10-07T04:40:42.317Z,90.57
2016-10-07T04:41:04.027Z,90.50
2016-10-07T04:41:25.744Z,90.43
2016-10-07T04:41:47.456Z,90.49
2016-10-07T04:42:09.167Z,90.41
2016-10-07T04:42:30.882Z,90.41
2016-10-07T04:42:52.594Z,90.53